createdAt,value
2018-07-24T00:01:00.342Z,14.07
2018-07-24T00:03:29.690Z,14.63
2018-07-24T00:05:59.096Z,14.63
2018-07-24T00:08:28.519Z,14.77
2018-07-24T00:10:57.952Z,14.53
2018-07-24T00:13:27.077Z,14.00
2018-07-24T00:15:56.466Z,15.13
2018-07-24T00:18:25.950Z,14.30
2018-07-24T00:20:56.373Z,13.60
2018-07-24T00:23:25.695Z,14.47
2018-07-24T00:25:55.206Z,13.77
2018-07-24T00:28:24.685Z,14.17
2018-07-24T00:30:54.816Z,14.83
2018-07-24T00:33:24.197Z,14.77
2018-07-24T00:35:53.590Z,13.97
2018-07-24T00:38:22.927Z,14.47
2018-07-24T00:40:53.417Z,14.17
2018-07-24T00:43:23.081Z,14.60
2018-07-24T00:45:52.482Z,15.27
2018-07-24T00:48:21.909Z,14.83
2018-07-24T00:50:51.357Z,14.80
2018-07-24T00:53:20.700Z,14.20
2018-07-24T00:55:50.065Z,15.00
2018-07-24T00:58:19.585Z,14.67
2018-07-24T01:00:49.046Z,13.80
2018-07-24T01:03:18.542Z,13.27
2018-07-24T01:05:47.969Z,13.67
2018-07-24T01:08:17.374Z,13.33
2018-07-24T01:10:51.521Z,14.63
2018-07-24T01:13:20.959Z,14.20
2018-07-24T01:15:50.316Z,14.13
2018-07-24T01:18:19.681Z,15.23
2018-07-24T01:20:49.229Z,14.57
2018-07-24T01:23:18.631Z,14.03
2018-07-24T01:25:48.005Z,15.07
2018-07-24T01:28:17.395Z,16.63
2018-07-24T01:31:03.660Z,15.80
2018-07-24T01:33:33.001Z,16.97
2018-07-24T01:36:02.376Z,15.57
2018-07-24T01:38:31.739Z,19.13
2018-07-24T01:41:09.661Z,15.27
2018-07-24T01:43:39.037Z,15.80
2018-07-24T01:46:08.447Z,15.77
2018-07-24T01:48:37.809Z,14.60
2018-07-24T01:51:08.166Z,15.57
2018-07-24T01:53:37.564Z,15.77
2018-07-24T01:56:06.941Z,16.47
2018-07-24T01:58:36.327Z,17.10
2018-07-24T02:01:05.670Z,14.80
2018-07-24T02:03:35.137Z,15.77
2018-07-24T02:06:04.786Z,15.30
2018-07-24T02:08:34.349Z,16.40
2018-07-24T02:11:07.551Z,15.50
2018-07-24T02:13:36.922Z,16.50
2018-07-24T02:16:06.349Z,16.90
2018-07-24T02:18:35.690Z,16.03
2018-07-24T02:21:05.131Z,17.47
2018-07-24T02:23:34.489Z,15.73
2018-07-24T02:26:03.565Z,15.60
2018-07-24T02:28:32.931Z,16.73
2018-07-24T02:31:26.600Z,17.63
2018-07-24T02:33:55.959Z,17.60
2018-07-24T02:36:25.295Z,16.27
2018-07-24T02:38:54.706Z,16.30
2018-07-24T02:41:41.210Z,16.30
2018-07-24T02:44:10.763Z,15.80
2018-07-24T02:46:40.198Z,16.40
2018-07-24T02:49:09.546Z,15.43
2018-07-24T02:51:38.939Z,16.23
2018-07-24T02:54:08.246Z,15.63
2018-07-24T02:56:37.622Z,17.03
2018-07-24T02:59:07.471Z,15.93
2018-07-24T03:01:36.850Z,15.77
2018-07-24T03:04:06.223Z,16.47
2018-07-24T03:06:35.606Z,14.83
2018-07-24T03:09:07.653Z,15.63
2018-07-24T03:11:37.068Z,15.57
2018-07-24T03:14:06.645Z,16.30
2018-07-24T03:16:36.004Z,16.03
2018-07-24T03:19:05.361Z,14.97
2018-07-24T03:21:34.714Z,15.50
2018-07-24T03:24:04.063Z,14.30
2018-07-24T03:26:33.534Z,14.33
2018-07-24T03:29:02.903Z,15.23
2018-07-24T03:31:41.167Z,13.43
2018-07-24T03:34:10.265Z,15.40
2018-07-24T03:36:39.593Z,16.93
2018-07-24T03:39:11.991Z,15.67
2018-07-24T03:41:41.442Z,15.83
2018-07-24T03:44:11.217Z,16.23
2018-07-24T03:46:40.565Z,15.77
2018-07-24T03:49:09.970Z,16.53
2018-07-24T03:51:39.361Z,15.13
2018-07-24T03:54:08.501Z,15.93
2018-07-24T03:56:37.837Z,17.13
2018-07-24T03:59:07.305Z,16.00
2018-07-24T04:01:36.664Z,16.00
2018-07-24T04:04:05.978Z,16.00
2018-07-24T04:06:35.305Z,15.03
2018-07-24T04:09:07.429Z,15.97
2018-07-24T04:11:36.817Z,15.77
2018-07-24T04:14:06.286Z,16.37
2018-07-24T04:16:35.781Z,16.20
2018-07-24T04:19:05.189Z,16.83
2018-07-24T04:21:34.549Z,16.27
2018-07-24T04:24:03.852Z,18.17
2018-07-24T04:26:33.189Z,17.37
2018-07-24T04:29:02.541Z,14.47
2018-07-24T04:31:32.857Z,14.87
2018-07-24T04:34:02.266Z,15.93
2018-07-24T04:36:31.578Z,17.27
2018-07-24T04:39:00.962Z,18.87
2018-07-24T04:41:30.474Z,19.03
2018-07-24T04:43:59.820Z,17.50
2018-07-24T04:46:29.262Z,18.73
2018-07-24T04:48:58.605Z,18.33
2018-07-24T04:51:31.794Z,18.90
2018-07-24T04:54:01.157Z,18.93
2018-07-24T04:56:30.513Z,19.57
2018-07-24T04:58:59.825Z,18.20
2018-07-24T05:01:43.403Z,17.60
2018-07-24T05:04:12.814Z,18.17
2018-07-24T05:06:42.299Z,17.53
2018-07-24T05:09:15.630Z,17.43
2018-07-24T05:11:45.261Z,16.37
2018-07-24T05:14:14.641Z,17.93
2018-07-24T05:16:44.062Z,18.27
2018-07-24T05:19:13.473Z,20.33
2018-07-24T05:21:42.833Z,19.33
2018-07-24T05:24:12.221Z,18.17
2018-07-24T05:26:41.518Z,19.90
2018-07-24T05:29:11.050Z,19.60
2018-07-24T05:31:40.353Z,18.93
2018-07-24T05:34:09.735Z,18.80
2018-07-24T05:36:39.110Z,20.53
2018-07-24T05:39:10.818Z,19.73
2018-07-24T05:41:40.212Z,18.87
2018-07-24T05:44:09.705Z,17.93
2018-07-24T05:46:39.207Z,19.07
2018-07-24T05:49:08.630Z,20.10
2018-07-24T05:51:38.022Z,18.87
2018-07-24T05:54:07.541Z,17.80
2018-07-24T05:56:36.945Z,19.57
2018-07-24T05:59:06.333Z,18.97
2018-07-24T06:01:35.722Z,18.53
2018-07-24T06:04:05.098Z,18.23
2018-07-24T06:06:34.538Z,18.87
2018-07-24T06:09:04.703Z,18.33
2018-07-24T06:11:34.046Z,19.07
2018-07-24T06:14:03.494Z,19.33
2018-07-24T06:16:32.874Z,19.57
2018-07-24T06:19:02.325Z,19.73
2018-07-24T06:21:39.875Z,18.63
2018-07-24T06:24:09.280Z,19.07
2018-07-24T06:26:38.714Z,18.83
2018-07-24T06:29:08.097Z,18.23
2018-07-24T06:31:37.394Z,16.17
2018-07-24T06:34:06.833Z,17.47
2018-07-24T06:36:36.273Z,17.83
2018-07-24T06:39:10.065Z,18.70
2018-07-24T06:41:39.888Z,18.23
2018-07-24T06:44:09.972Z,17.37
2018-07-24T06:46:39.345Z,18.37
2018-07-24T06:49:09.129Z,17.53
2018-07-24T06:51:38.549Z,17.60
2018-07-24T06:54:07.919Z,18.47
2018-07-24T06:56:37.316Z,20.10
2018-07-24T06:59:06.722Z,21.43
2018-07-24T07:01:36.090Z,21.40
2018-07-24T07:04:05.530Z,19.90
2018-07-24T07:06:34.965Z,22.20
2018-07-24T07:09:06.853Z,22.83
2018-07-24T07:11:35.902Z,20.43
2018-07-24T07:14:06.137Z,23.67
2018-07-24T07:16:35.470Z,22.43
2018-07-24T07:19:04.826Z,21.13
2018-07-24T07:21:34.197Z,19.87
2018-07-24T07:24:03.269Z,21.60
2018-07-24T07:26:32.593Z,21.90
2018-07-24T07:29:02.054Z,22.67
2018-07-24T07:31:31.453Z,20.73
2018-07-24T07:34:00.529Z,19.27
2018-07-24T07:36:29.854Z,18.20
2018-07-24T07:38:58.839Z,17.77
2018-07-24T07:41:35.783Z,17.07
2018-07-24T07:44:05.294Z,17.83
2018-07-24T07:46:34.680Z,18.13
2018-07-24T07:49:04.062Z,16.75
2018-07-24T07:51:33.451Z,16.02
2018-07-24T07:54:02.843Z,16.17
2018-07-24T07:56:32.160Z,14.25
2018-07-24T07:59:01.555Z,13.20
2018-07-24T08:01:45.792Z,13.68
2018-07-24T08:04:15.236Z,14.55
2018-07-24T08:06:44.613Z,15.65
2018-07-24T08:09:17.641Z,13.28
2018-07-24T08:11:47.057Z,13.15
2018-07-24T08:14:16.499Z,13.80
2018-07-24T08:16:45.818Z,13.00
2018-07-24T08:19:15.265Z,13.28
2018-07-24T08:21:44.604Z,12.58
2018-07-24T08:24:14.022Z,14.25
2018-07-24T08:26:43.386Z,13.13
2018-07-24T08:29:14.817Z,14.15
2018-07-24T08:31:44.205Z,14.33
2018-07-24T08:34:13.585Z,15.10
2018-07-24T08:36:43.006Z,12.40
2018-07-24T08:39:13.137Z,12.65
2018-07-24T08:41:42.606Z,13.60
2018-07-24T08:44:12.026Z,12.80
2018-07-24T08:46:41.358Z,14.70
2018-07-24T08:49:11.753Z,13.98
2018-07-24T08:51:41.138Z,14.40
2018-07-24T08:54:10.518Z,14.20
2018-07-24T08:56:39.987Z,12.73
2018-07-24T08:59:09.373Z,13.53
2018-07-24T09:01:38.521Z,13.78
2018-07-24T09:04:08.015Z,12.80
2018-07-24T09:06:37.339Z,12.20
2018-07-24T09:09:09.967Z,13.32
2018-07-24T09:11:39.339Z,12.68
2018-07-24T09:14:08.775Z,13.40
2018-07-24T09:16:38.916Z,11.12
2018-07-24T09:19:08.683Z,10.75
2018-07-24T09:21:38.095Z,12.00
2018-07-24T09:24:07.550Z,11.15
2018-07-24T09:26:37.073Z,11.33
2018-07-24T09:29:06.409Z,11.25
2018-07-24T09:31:35.957Z,10.00
2018-07-24T09:34:05.413Z,8.95
2018-07-24T09:36:34.858Z,9.90
2018-07-24T09:39:06.418Z,7.87
2018-07-24T09:41:35.762Z,8.88
2018-07-24T09:44:05.109Z,7.25
2018-07-24T09:46:34.450Z,6.50
2018-07-24T09:49:03.890Z,7.58
2018-07-24T09:51:33.306Z,8.80
2018-07-24T09:54:02.750Z,8.93
2018-07-24T09:56:32.152Z,9.48
2018-07-24T09:59:01.425Z,9.68
2018-07-24T10:01:42.340Z,7.97
2018-07-24T10:04:11.816Z,8.55
2018-07-24T10:06:40.832Z,8.55
2018-07-24T10:09:11.115Z,8.30
2018-07-24T10:11:40.558Z,12.85
2018-07-24T10:14:10.023Z,8.85
2018-07-24T10:16:39.417Z,8.03
2018-07-24T10:19:08.786Z,8.38
2018-07-24T10:21:38.178Z,7.55
2018-07-24T10:24:07.582Z,7.35
2018-07-24T10:26:36.934Z,6.15
2018-07-24T10:29:06.270Z,6.58
2018-07-24T10:31:35.720Z,7.55
2018-07-24T10:34:05.034Z,7.30
2018-07-24T10:36:34.459Z,6.03
2018-07-24T10:39:06.303Z,6.53
2018-07-24T10:41:35.654Z,7.20
2018-07-24T10:44:05.076Z,7.55
2018-07-24T10:46:34.501Z,6.37
2018-07-24T10:49:03.954Z,6.72
2018-07-24T10:51:33.466Z,6.00
2018-07-24T10:54:02.863Z,5.62
2018-07-24T10:56:32.743Z,5.25
2018-07-24T10:59:02.156Z,5.12
2018-07-24T11:01:31.630Z,5.62
2018-07-24T11:04:01.026Z,6.17
2018-07-24T11:06:30.386Z,6.37
2018-07-24T11:08:59.760Z,6.08
2018-07-24T11:11:38.330Z,5.65
2018-07-24T11:14:07.353Z,5.78
2018-07-24T11:16:36.704Z,5.37
2018-07-24T11:19:06.163Z,7.50
2018-07-24T11:21:35.525Z,4.87
2018-07-24T11:24:04.997Z,5.03
2018-07-24T11:26:34.350Z,5.25
2018-07-24T11:29:03.806Z,4.50
2018-07-24T11:31:33.291Z,4.58
2018-07-24T11:34:02.832Z,5.20
2018-07-24T11:36:32.282Z,5.10
2018-07-24T11:39:01.663Z,5.17
2018-07-24T11:41:35.612Z,5.17
2018-07-24T11:44:05.056Z,4.85
2018-07-24T11:46:34.702Z,4.42
2018-07-24T11:49:04.157Z,4.42
2018-07-24T11:51:33.188Z,4.47
2018-07-24T11:54:02.702Z,4.28
2018-07-24T11:56:32.093Z,4.33
2018-07-24T11:59:01.506Z,4.70
2018-07-24T12:01:30.962Z,4.17
2018-07-24T12:04:00.367Z,4.20
2018-07-24T12:06:29.818Z,3.90
2018-07-24T12:08:59.189Z,4.55
2018-07-24T12:11:28.579Z,4.40
2018-07-24T12:13:57.721Z,4.20
2018-07-24T12:16:27.062Z,5.70
2018-07-24T12:18:56.386Z,3.92
2018-07-24T12:21:25.791Z,4.33
2018-07-24T12:23:55.155Z,4.03
2018-07-24T12:26:24.470Z,4.25
2018-07-24T12:28:53.807Z,4.17
2018-07-24T12:31:25.286Z,4.55
2018-07-24T12:33:54.686Z,4.47
2018-07-24T12:36:24.061Z,4.60
2018-07-24T12:38:53.417Z,4.00
2018-07-24T12:41:22.817Z,4.60
2018-07-24T12:43:52.182Z,5.20
2018-07-24T12:46:21.646Z,4.50
2018-07-24T12:48:50.989Z,5.85
2018-07-24T12:51:21.413Z,4.58
2018-07-24T12:53:50.791Z,4.72
2018-07-24T12:56:20.213Z,4.22
2018-07-24T12:58:49.569Z,4.62
2018-07-24T13:01:22.897Z,4.95
2018-07-24T13:03:52.254Z,4.87
2018-07-24T13:06:21.622Z,4.35
2018-07-24T13:08:51.013Z,5.10
2018-07-24T13:11:27.842Z,4.60
2018-07-24T13:13:57.169Z,4.90
2018-07-24T13:16:26.505Z,4.72
2018-07-24T13:18:55.974Z,4.97
2018-07-24T13:21:27.112Z,4.42
2018-07-24T13:23:56.414Z,4.80
2018-07-24T13:26:25.873Z,4.40
2018-07-24T13:28:55.247Z,4.80
2018-07-24T13:31:25.688Z,3.98
2018-07-24T13:33:55.126Z,4.35
2018-07-24T13:36:24.474Z,4.97
2018-07-24T13:38:53.901Z,4.25
2018-07-24T13:41:24.295Z,4.53
2018-07-24T13:43:53.676Z,4.15
2018-07-24T13:46:23.053Z,4.15
2018-07-24T13:48:52.416Z,4.70
2018-07-24T13:51:22.809Z,5.37
2018-07-24T13:53:52.237Z,5.80
2018-07-24T13:56:21.639Z,4.95
2018-07-24T13:58:51.041Z,4.53
2018-07-24T14:01:20.534Z,5.03
2018-07-24T14:03:49.929Z,4.37
2018-07-24T14:06:19.328Z,5.72
2018-07-24T14:08:48.668Z,4.92
2018-07-24T14:11:22.762Z,5.35
2018-07-24T14:13:52.224Z,4.70
2018-07-24T14:16:21.674Z,4.35
2018-07-24T14:18:51.084Z,4.80
2018-07-24T14:21:24.150Z,5.12
2018-07-24T14:23:53.552Z,4.78
2018-07-24T14:26:22.901Z,4.65
2018-07-24T14:28:52.346Z,4.85
2018-07-24T14:31:22.768Z,4.70
2018-07-24T14:33:52.207Z,4.45
2018-07-24T14:36:21.550Z,4.58
2018-07-24T14:38:50.881Z,4.22
2018-07-24T14:41:35.051Z,5.08
2018-07-24T14:44:04.407Z,5.08
2018-07-24T14:46:33.811Z,4.50
2018-07-24T14:49:03.042Z,4.62
2018-07-24T14:51:32.498Z,4.83
2018-07-24T14:54:01.835Z,4.97
2018-07-24T14:56:31.226Z,4.80
2018-07-24T14:59:00.630Z,4.55
2018-07-24T15:01:31.990Z,4.40
2018-07-24T15:04:01.414Z,4.35
2018-07-24T15:06:30.747Z,4.80
2018-07-24T15:09:00.090Z,4.60
2018-07-24T15:11:37.218Z,4.17
2018-07-24T15:14:06.570Z,5.03
2018-07-24T15:16:35.885Z,4.95
2018-07-24T15:19:05.195Z,4.25
2018-07-24T15:21:34.578Z,4.58
2018-07-24T15:24:03.934Z,5.12
2018-07-24T15:26:33.346Z,6.50
2018-07-24T15:29:02.718Z,4.83
2018-07-24T15:31:34.113Z,4.78
2018-07-24T15:34:03.246Z,4.47
2018-07-24T15:36:39.211Z,5.62
2018-07-24T15:39:11.343Z,4.75
2018-07-24T15:41:41.145Z,5.72
2018-07-24T15:44:10.578Z,7.20
2018-07-24T15:46:40.099Z,4.15
2018-07-24T15:49:09.417Z,4.33
2018-07-24T15:51:38.818Z,4.35
2018-07-24T15:54:08.273Z,4.95
2018-07-24T15:56:37.661Z,4.42
2018-07-24T15:59:07.057Z,4.15
2018-07-24T16:01:36.213Z,4.95
2018-07-24T16:04:05.592Z,4.33
2018-07-24T16:06:34.907Z,4.25
2018-07-24T16:09:06.322Z,4.35
2018-07-24T16:11:35.401Z,4.65
2018-07-24T16:14:05.597Z,4.08
2018-07-24T16:16:34.954Z,4.78
2018-07-24T16:19:04.511Z,3.98
2018-07-24T16:21:33.874Z,4.58
2018-07-24T16:24:03.143Z,3.80
2018-07-24T16:26:32.514Z,5.42
2018-07-24T16:29:01.837Z,3.52
2018-07-24T16:31:35.193Z,3.65
2018-07-24T16:34:04.539Z,4.17
2018-07-24T16:36:33.876Z,3.85
2018-07-24T16:39:03.246Z,4.30
2018-07-24T16:41:32.646Z,5.50
2018-07-24T16:44:01.737Z,3.85
2018-07-24T16:46:31.053Z,4.50
2018-07-24T16:49:00.409Z,4.00
2018-07-24T16:51:34.234Z,3.60
2018-07-24T16:54:03.463Z,4.58
2018-07-24T16:56:32.838Z,4.12
2018-07-24T16:59:02.249Z,4.30
2018-07-24T17:01:52.378Z,3.83
2018-07-24T17:04:21.661Z,4.58
2018-07-24T17:06:51.078Z,4.35
2018-07-24T17:09:23.609Z,3.90
2018-07-24T17:11:52.637Z,5.65
2018-07-24T17:14:22.007Z,4.83
2018-07-24T17:16:51.314Z,7.47
2018-07-24T17:19:35.705Z,4.30
2018-07-24T17:22:05.041Z,4.42
2018-07-24T17:24:34.359Z,4.65
2018-07-24T17:27:03.768Z,4.20
2018-07-24T17:29:38.921Z,5.20
2018-07-24T17:32:08.494Z,4.97
2018-07-24T17:34:37.821Z,5.87
2018-07-24T17:37:07.309Z,4.60
2018-07-24T17:39:40.593Z,4.83
2018-07-24T17:42:10.031Z,4.62
2018-07-24T17:44:39.500Z,5.08
2018-07-24T17:47:08.863Z,4.83
2018-07-24T17:49:50.026Z,4.45
2018-07-24T17:52:19.355Z,4.35
2018-07-24T17:54:48.810Z,7.40
2018-07-24T17:57:19.126Z,4.10
2018-07-24T17:59:50.548Z,5.47
2018-07-24T18:02:19.937Z,4.58
2018-07-24T18:04:49.323Z,4.75
2018-07-24T18:07:18.750Z,4.50
2018-07-24T18:09:50.122Z,4.92
2018-07-24T18:12:19.451Z,4.87
2018-07-24T18:14:53.210Z,4.80
2018-07-24T18:17:24.581Z,5.00
2018-07-24T18:19:53.754Z,8.45
2018-07-24T18:22:23.119Z,5.10
2018-07-24T18:24:52.493Z,4.70
2018-07-24T18:27:21.958Z,5.05
2018-07-24T18:29:52.485Z,4.92
2018-07-24T18:32:21.894Z,4.75
2018-07-24T18:34:51.317Z,5.05
2018-07-24T18:37:20.769Z,5.40
2018-07-24T18:40:06.918Z,4.95
2018-07-24T18:42:36.302Z,6.12
2018-07-24T18:45:05.797Z,4.87
2018-07-24T18:47:35.236Z,7.67
2018-07-24T18:50:04.706Z,4.95
2018-07-24T18:52:34.109Z,4.55
2018-07-24T18:55:03.513Z,5.70
2018-07-24T18:57:32.855Z,5.40
2018-07-24T19:00:02.302Z,5.25
2018-07-24T19:02:31.741Z,6.00
2018-07-24T19:05:01.077Z,5.45
2018-07-24T19:07:30.380Z,5.80
2018-07-24T19:10:00.869Z,6.08
2018-07-24T19:12:30.205Z,5.55
2018-07-24T19:14:59.637Z,5.90
2018-07-24T19:17:28.965Z,8.18
2018-07-24T19:19:59.346Z,6.50
2018-07-24T19:22:28.769Z,6.10
2018-07-24T19:24:58.109Z,12.73
2018-07-24T19:27:27.465Z,27.42
2018-07-24T19:30:06.298Z,9.40
2018-07-24T19:32:35.641Z,6.75
2018-07-24T19:35:04.998Z,7.58
2018-07-24T19:37:34.398Z,7.10
2018-07-24T19:40:07.914Z,7.28
2018-07-24T19:42:37.327Z,6.67
2018-07-24T19:45:07.133Z,7.10
2018-07-24T19:47:36.174Z,6.80
2018-07-24T19:50:07.678Z,8.70
2018-07-24T19:52:37.069Z,7.20
2018-07-24T19:55:09.522Z,9.15
2018-07-24T19:57:39.001Z,13.38
2018-07-24T20:00:15.226Z,8.43
2018-07-24T20:02:44.649Z,7.22
2018-07-24T20:05:13.946Z,7.83
2018-07-24T20:07:43.305Z,8.48
2018-07-24T20:10:17.306Z,8.00
2018-07-24T20:12:46.714Z,11.67
2018-07-24T20:15:20.441Z,8.28
2018-07-24T20:17:49.825Z,8.00
2018-07-24T20:20:34.035Z,7.27
2018-07-24T20:23:03.490Z,7.93
2018-07-24T20:25:32.480Z,9.93
2018-07-24T20:28:01.819Z,7.83
2018-07-24T20:30:33.153Z,7.87
2018-07-24T20:33:02.533Z,7.70
2018-07-24T20:35:32.080Z,7.73
2018-07-24T20:38:01.291Z,10.77
2018-07-24T20:40:38.481Z,8.00
2018-07-24T20:43:07.909Z,13.63
2018-07-24T20:45:37.278Z,8.00
2018-07-24T20:48:06.990Z,8.50
2018-07-24T20:50:37.462Z,8.63
2018-07-24T20:53:06.847Z,8.47
2018-07-24T20:55:36.193Z,8.70
2018-07-24T20:58:05.581Z,8.03
2018-07-24T21:00:51.718Z,8.20
2018-07-24T21:03:21.165Z,9.17
2018-07-24T21:05:50.524Z,11.13
2018-07-24T21:08:19.870Z,7.50
2018-07-24T21:11:06.630Z,8.70
2018-07-24T21:13:36.066Z,9.20
2018-07-24T21:16:05.485Z,11.23
2018-07-24T21:18:34.925Z,9.20
2018-07-24T21:21:32.344Z,8.17
2018-07-24T21:24:02.099Z,8.40
2018-07-24T21:26:32.058Z,8.30
2018-07-24T21:29:01.438Z,8.70
2018-07-24T21:31:31.878Z,9.60
2018-07-24T21:34:01.214Z,9.73
2018-07-24T21:36:30.626Z,10.40
2018-07-24T21:38:59.909Z,9.10
2018-07-24T21:41:31.334Z,8.63
2018-07-24T21:44:00.693Z,8.43
2018-07-24T21:46:30.117Z,9.50
2018-07-24T21:48:59.499Z,8.97
2018-07-24T21:51:29.814Z,9.10
2018-07-24T21:53:59.222Z,9.03
2018-07-24T21:56:28.639Z,9.13
2018-07-24T21:58:58.105Z,8.47
2018-07-24T22:01:27.417Z,12.60
2018-07-24T22:03:56.682Z,9.23
2018-07-24T22:06:26.005Z,9.33
2018-07-24T22:08:55.553Z,8.87
2018-07-24T22:11:24.896Z,9.47
2018-07-24T22:13:54.203Z,9.37
2018-07-24T22:16:23.606Z,10.07
2018-07-24T22:18:52.970Z,9.60
2018-07-24T22:21:26.458Z,10.57
2018-07-24T22:23:55.819Z,11.07
2018-07-24T22:26:25.158Z,9.17
2018-07-24T22:28:57.382Z,10.00
2018-07-24T22:31:31.962Z,9.43
2018-07-24T22:34:01.348Z,9.67
2018-07-24T22:36:30.697Z,9.53
2018-07-24T22:39:00.076Z,9.07
2018-07-24T22:41:29.405Z,10.23
2018-07-24T22:44:05.572Z,9.33
2018-07-24T22:46:35.053Z,13.90
2018-07-24T22:49:04.502Z,10.23
2018-07-24T22:51:33.893Z,10.17
2018-07-24T22:54:02.991Z,10.20
2018-07-24T22:56:32.351Z,10.23
2018-07-24T22:59:01.679Z,10.03
2018-07-24T23:01:33.064Z,10.07
2018-07-24T23:04:02.454Z,9.70
2018-07-24T23:06:31.861Z,10.77
2018-07-24T23:09:01.228Z,11.40
2018-07-24T23:11:40.573Z,9.80
2018-07-24T23:14:09.983Z,10.13
2018-07-24T23:16:39.409Z,11.67
2018-07-24T23:19:08.813Z,9.77
2018-07-24T23:21:38.138Z,10.27
2018-07-24T23:24:08.606Z,10.17
2018-07-24T23:26:37.948Z,10.50
2018-07-24T23:29:07.263Z,10.10
2018-07-24T23:31:36.597Z,10.80
2018-07-24T23:34:05.935Z,10.60
2018-07-24T23:36:35.285Z,10.77
2018-07-24T23:39:06.639Z,10.73
2018-07-24T23:41:36.034Z,11.63
2018-07-24T23:44:05.445Z,10.50
2018-07-24T23:46:34.869Z,10.80
2018-07-24T23:49:04.287Z,11.50
2018-07-24T23:51:33.629Z,10.87
2018-07-24T23:54:03.033Z,11.20
2018-07-24T23:56:32.461Z,10.30
2018-07-24T23:59:01.761Z,10.37
